sensor_id;sensor_type;location;lat;lon;timestamp;P1;durP1;ratioP1;P2;durP2;ratioP2
25980;SDS011;13772;52.996;9.124;2023-04-08T07:41:58;23.98;;;16.75;;
25980;SDS011;13772;52.996;9.124;2023-04-08T07:44:23;26.45;;;17.98;;
25980;SDS011;13772;52.996;9.124;2023-04-08T07:46:48;30.50;;;18.70;;
25980;SDS011;13772;52.996;9.124;2023-04-08T07:49:15;27.65;;;18.75;;
25980;SDS011;13772;52.996;9.124;2023-04-08T07:51:40;31.60;;;18.83;;
25980;SDS011;13772;52.996;9.124;2023-04-08T07:54:06;24.90;;;15.88;;
25980;SDS011;13772;52.996;9.124;2023-04-08T07:56:31;25.02;;;17.17;;
25980;SDS011;13772;52.996;9.124;2023-04-08T07:58:56;23.70;;;16.20;;
25980;SDS011;13772;52.996;9.124;2023-04-08T08:01:22;25.35;;;15.23;;
25980;SDS011;13772;52.996;9.124;2023-04-08T08:03:47;23.45;;;16.02;;
25980;SDS011;13772;52.996;9.124;2023-04-08T08:06:13;21.40;;;14.20;;
25980;SDS011;13772;52.996;9.124;2023-04-08T08:08:38;22.52;;;14.02;;
25980;SDS011;13772;52.996;9.124;2023-04-08T08:11:03;21.67;;;15.52;;
25980;SDS011;13772;52.996;9.124;2023-04-08T08:13:29;24.95;;;15.43;;
25980;SDS011;13772;52.996;9.124;2023-04-08T08:15:54;21.88;;;15.57;;
25980;SDS011;13772;52.996;9.124;2023-04-08T08:18:19;21.83;;;15.13;;
25980;SDS011;13772;52.996;9.124;2023-04-08T08:20:45;23.20;;;15.40;;
25980;SDS011;13772;52.996;9.124;2023-04-08T08:23:10;22.77;;;15.40;;
25980;SDS011;13772;52.996;9.124;2023-04-08T08:25:36;20.65;;;14.60;;
25980;SDS011;13772;52.996;9.124;2023-04-08T08:28:01;24.13;;;15.10;;
25980;SDS011;13772;52.996;9.124;2023-04-08T08:30:26;23.23;;;16.23;;
25980;SDS011;13772;52.996;9.124;2023-04-08T08:32:51;22.48;;;14.70;;
25980;SDS011;13772;52.996;9.124;2023-04-08T08:35:17;21.52;;;15.23;;
25980;SDS011;13772;52.996;9.124;2023-04-08T08:37:42;22.23;;;14.88;;
25980;SDS011;13772;52.996;9.124;2023-04-08T08:40:07;22.98;;;15.23;;
25980;SDS011;13772;52.996;9.124;2023-04-08T08:42:32;26.20;;;16.20;;
25980;SDS011;13772;52.996;9.124;2023-04-08T08:45:00;25.85;;;15.27;;
25980;SDS011;13772;52.996;9.124;2023-04-08T08:47:25;22.40;;;14.55;;
25980;SDS011;13772;52.996;9.124;2023-04-08T08:49:51;21.17;;;14.35;;
25980;SDS011;13772;52.996;9.124;2023-04-08T08:52:16;21.23;;;14.00;;
25980;SDS011;13772;52.996;9.124;2023-04-08T08:54:42;23.98;;;15.52;;
25980;SDS011;13772;52.996;9.124;2023-04-08T08:57:20;22.77;;;15.45;;
25980;SDS011;13772;52.996;9.124;2023-04-08T08:59:45;22.20;;;15.18;;
25980;SDS011;13772;52.996;9.124;2023-04-08T09:05:00;24.85;;;16.45;;
25980;SDS011;13772;52.996;9.124;2023-04-08T09:07:26;17.95;;;12.50;;
25980;SDS011;13772;52.996;9.124;2023-04-08T09:09:52;18.98;;;11.77;;
25980;SDS011;13772;52.996;9.124;2023-04-08T09:12:17;19.17;;;12.63;;
25980;SDS011;13772;52.996;9.124;2023-04-08T09:14:42;22.30;;;14.32;;
25980;SDS011;13772;52.996;9.124;2023-04-08T09:17:08;20.48;;;14.30;;
25980;SDS011;13772;52.996;9.124;2023-04-08T09:19:33;26.15;;;15.15;;
25980;SDS011;13772;52.996;9.124;2023-04-08T09:22:05;23.48;;;15.10;;
25980;SDS011;13772;52.996;9.124;2023-04-08T09:24:33;24.40;;;13.82;;
25980;SDS011;13772;52.996;9.124;2023-04-08T09:26:59;27.35;;;15.13;;
25980;SDS011;13772;52.996;9.124;2023-04-08T09:29:25;20.58;;;14.10;;
25980;SDS011;13772;52.996;9.124;2023-04-08T09:31:58;22.05;;;13.25;;
25980;SDS011;13772;52.996;9.124;2023-04-08T09:34:24;19.83;;;12.68;;
25980;SDS011;13772;52.996;9.124;2023-04-08T09:36:50;18.65;;;11.90;;
25980;SDS011;13772;52.996;9.124;2023-04-08T09:39:15;18.83;;;12.55;;
25980;SDS011;13772;52.996;9.124;2023-04-08T09:41:41;22.58;;;12.60;;
25980;SDS011;13772;52.996;9.124;2023-04-08T09:44:08;23.05;;;14.13;;
25980;SDS011;13772;52.996;9.124;2023-04-08T09:49:26;17.73;;;11.75;;
25980;SDS011;13772;52.996;9.124;2023-04-08T09:57:04;24.70;;;13.15;;
25980;SDS011;13772;52.996;9.124;2023-04-08T09:59:33;20.95;;;13.27;;
25980;SDS011;13772;52.996;9.124;2023-04-08T10:02:02;19.73;;;11.85;;
25980;SDS011;13772;52.996;9.124;2023-04-08T10:04:29;22.40;;;13.70;;
25980;SDS011;13772;52.996;9.124;2023-04-08T10:06:56;22.85;;;13.32;;
25980;SDS011;13772;52.996;9.124;2023-04-08T10:09:22;18.80;;;12.77;;
25980;SDS011;13772;52.996;9.124;2023-04-08T10:11:47;22.42;;;12.55;;
25980;SDS011;13772;52.996;9.124;2023-04-08T10:14:13;21.73;;;13.65;;
25980;SDS011;13772;52.996;9.124;2023-04-08T10:16:38;22.63;;;13.38;;
25980;SDS011;13772;52.996;9.124;2023-04-08T10:19:05;24.10;;;13.13;;
25980;SDS011;13772;52.996;9.124;2023-04-08T10:21:48;25.63;;;13.15;;
25980;SDS011;13772;52.996;9.124;2023-04-08T10:24:14;22.42;;;13.10;;
25980;SDS011;13772;52.996;9.124;2023-04-08T10:26:40;22.27;;;13.30;;
25980;SDS011;13772;52.996;9.124;2023-04-08T10:31:44;23.52;;;13.43;;
25980;SDS011;13772;52.996;9.124;2023-04-08T10:36:41;20.83;;;12.85;;
25980;SDS011;13772;52.996;9.124;2023-04-08T10:39:07;21.60;;;13.90;;
25980;SDS011;13772;52.996;9.124;2023-04-08T10:41:32;23.40;;;13.40;;
25980;SDS011;13772;52.996;9.124;2023-04-08T10:43:57;22.42;;;14.30;;
25980;SDS011;13772;52.996;9.124;2023-04-08T10:46:22;22.02;;;14.60;;
25980;SDS011;13772;52.996;9.124;2023-04-08T10:48:58;22.67;;;14.13;;
25980;SDS011;13772;52.996;9.124;2023-04-08T10:51:23;22.00;;;13.25;;
25980;SDS011;13772;52.996;9.124;2023-04-08T10:53:48;22.65;;;13.88;;
25980;SDS011;13772;52.996;9.124;2023-04-08T10:56:14;20.38;;;13.05;;
25980;SDS011;13772;52.996;9.124;2023-04-08T10:58:47;24.75;;;13.00;;
25980;SDS011;13772;52.996;9.124;2023-04-08T11:01:13;23.20;;;12.98;;
25980;SDS011;13772;52.996;9.124;2023-04-08T11:03:39;21.52;;;12.77;;
25980;SDS011;13772;52.996;9.124;2023-04-08T11:06:05;23.17;;;13.38;;
25980;SDS011;13772;52.996;9.124;2023-04-08T11:08:31;19.42;;;12.38;;
25980;SDS011;13772;52.996;9.124;2023-04-08T11:10:57;24.02;;;13.23;;
25980;SDS011;13772;52.996;9.124;2023-04-08T11:13:22;23.05;;;13.15;;
25980;SDS011;13772;52.996;9.124;2023-04-08T11:15:48;21.75;;;13.35;;
25980;SDS011;13772;52.996;9.124;2023-04-08T11:18:13;24.50;;;12.57;;
25980;SDS011;13772;52.996;9.124;2023-04-08T11:20:39;20.23;;;13.10;;
25980;SDS011;13772;52.996;9.124;2023-04-08T11:23:10;22.48;;;13.70;;
25980;SDS011;13772;52.996;9.124;2023-04-08T11:25:36;19.75;;;12.70;;
25980;SDS011;13772;52.996;9.124;2023-04-08T11:28:01;26.17;;;14.95;;
25980;SDS011;13772;52.996;9.124;2023-04-08T11:30:27;22.33;;;14.30;;
25980;SDS011;13772;52.996;9.124;2023-04-08T11:32:52;23.70;;;14.50;;
25980;SDS011;13772;52.996;9.124;2023-04-08T11:35:18;27.60;;;14.63;;
25980;SDS011;13772;52.996;9.124;2023-04-08T11:37:44;23.35;;;13.75;;
25980;SDS011;13772;52.996;9.124;2023-04-08T11:40:11;25.08;;;14.75;;
25980;SDS011;13772;52.996;9.124;2023-04-08T11:42:37;19.17;;;13.23;;
25980;SDS011;13772;52.996;9.124;2023-04-08T11:45:12;22.35;;;13.75;;
25980;SDS011;13772;52.996;9.124;2023-04-08T11:47:37;25.40;;;14.68;;
25980;SDS011;13772;52.996;9.124;2023-04-08T11:50:03;20.90;;;12.90;;
25980;SDS011;13772;52.996;9.124;2023-04-08T11:52:47;25.58;;;14.73;;
25980;SDS011;13772;52.996;9.124;2023-04-08T11:57:46;23.40;;;13.20;;
25980;SDS011;13772;52.996;9.124;2023-04-08T12:00:12;19.95;;;12.50;;
25980;SDS011;13772;52.996;9.124;2023-04-08T12:02:37;23.38;;;13.57;;
25980;SDS011;13772;52.996;9.124;2023-04-08T12:05:03;21.02;;;13.70;;
25980;SDS011;13772;52.996;9.124;2023-04-08T12:07:28;23.17;;;13.73;;
25980;SDS011;13772;52.996;9.124;2023-04-08T12:09:53;22.38;;;13.10;;
25980;SDS011;13772;52.996;9.124;2023-04-08T12:12:18;20.48;;;12.55;;
25980;SDS011;13772;52.996;9.124;2023-04-08T12:14:44;21.90;;;12.55;;
25980;SDS011;13772;52.996;9.124;2023-04-08T12:17:09;19.02;;;12.60;;
25980;SDS011;13772;52.996;9.124;2023-04-08T12:19:35;21.05;;;12.48;;
25980;SDS011;13772;52.996;9.124;2023-04-08T12:22:00;20.95;;;12.85;;
25980;SDS011;13772;52.996;9.124;2023-04-08T12:24:26;21.67;;;13.30;;
25980;SDS011;13772;52.996;9.124;2023-04-08T12:26:51;21.02;;;12.52;;
25980;SDS011;13772;52.996;9.124;2023-04-08T12:29:16;19.95;;;12.55;;
25980;SDS011;13772;52.996;9.124;2023-04-08T12:31:41;19.60;;;12.07;;
25980;SDS011;13772;52.996;9.124;2023-04-08T12:34:07;18.67;;;12.18;;
25980;SDS011;13772;52.996;9.124;2023-04-08T12:36:32;19.45;;;12.10;;
25980;SDS011;13772;52.996;9.124;2023-04-08T12:38:57;18.52;;;11.80;;
25980;SDS011;13772;52.996;9.124;2023-04-08T12:41:22;18.90;;;11.52;;
25980;SDS011;13772;52.996;9.124;2023-04-08T12:43:48;22.02;;;11.88;;
25980;SDS011;13772;52.996;9.124;2023-04-08T12:46:13;20.13;;;11.48;;
25980;SDS011;13772;52.996;9.124;2023-04-08T12:48:38;19.23;;;11.85;;
25980;SDS011;13772;52.996;9.124;2023-04-08T12:51:03;21.20;;;12.23;;
25980;SDS011;13772;52.996;9.124;2023-04-08T12:53:29;21.23;;;12.15;;
25980;SDS011;13772;52.996;9.124;2023-04-08T12:55:54;21.05;;;12.07;;
25980;SDS011;13772;52.996;9.124;2023-04-08T12:58:22;20.95;;;11.95;;
25980;SDS011;13772;52.996;9.124;2023-04-08T13:00:47;19.55;;;12.40;;
25980;SDS011;13772;52.996;9.124;2023-04-08T13:03:13;21.23;;;12.40;;
25980;SDS011;13772;52.996;9.124;2023-04-08T13:05:41;19.50;;;11.98;;
25980;SDS011;13772;52.996;9.124;2023-04-08T13:08:06;20.23;;;11.57;;
25980;SDS011;13772;52.996;9.124;2023-04-08T13:10:31;21.38;;;12.88;;
25980;SDS011;13772;52.996;9.124;2023-04-08T13:12:56;23.67;;;13.07;;
25980;SDS011;13772;52.996;9.124;2023-04-08T13:15:22;18.48;;;12.50;;
25980;SDS011;13772;52.996;9.124;2023-04-08T13:17:47;22.50;;;12.85;;
25980;SDS011;13772;52.996;9.124;2023-04-08T13:20:12;19.95;;;12.23;;
25980;SDS011;13772;52.996;9.124;2023-04-08T13:22:38;21.02;;;12.75;;
25980;SDS011;13772;52.996;9.124;2023-04-08T13:25:05;19.55;;;12.23;;
25980;SDS011;13772;52.996;9.124;2023-04-08T13:27:30;20.92;;;11.95;;
25980;SDS011;13772;52.996;9.124;2023-04-08T13:29:55;21.40;;;12.57;;
25980;SDS011;13772;52.996;9.124;2023-04-08T13:32:21;24.70;;;13.43;;
25980;SDS011;13772;52.996;9.124;2023-04-08T13:34:46;20.80;;;12.48;;
25980;SDS011;13772;52.996;9.124;2023-04-08T13:37:11;21.77;;;12.98;;
25980;SDS011;13772;52.996;9.124;2023-04-08T13:39:36;20.80;;;12.32;;
25980;SDS011;13772;52.996;9.124;2023-04-08T13:42:01;18.80;;;11.85;;
25980;SDS011;13772;52.996;9.124;2023-04-08T13:44:27;18.52;;;12.20;;
25980;SDS011;13772;52.996;9.124;2023-04-08T13:46:52;22.52;;;12.45;;
25980;SDS011;13772;52.996;9.124;2023-04-08T13:49:17;20.80;;;12.15;;
25980;SDS011;13772;52.996;9.124;2023-04-08T13:51:42;22.35;;;12.75;;
25980;SDS011;13772;52.996;9.124;2023-04-08T13:54:07;21.77;;;12.48;;
25980;SDS011;13772;52.996;9.124;2023-04-08T13:56:33;22.63;;;13.00;;
25980;SDS011;13772;52.996;9.124;2023-04-08T13:58:58;21.48;;;13.35;;
25980;SDS011;13772;52.996;9.124;2023-04-08T14:01:23;22.67;;;12.30;;
25980;SDS011;13772;52.996;9.124;2023-04-08T14:03:48;20.25;;;12.43;;
25980;SDS011;13772;52.996;9.124;2023-04-08T14:06:14;20.25;;;12.32;;
25980;SDS011;13772;52.996;9.124;2023-04-08T14:08:39;20.00;;;12.65;;
25980;SDS011;13772;52.996;9.124;2023-04-08T14:11:04;18.30;;;13.13;;
25980;SDS011;13772;52.996;9.124;2023-04-08T14:13:30;19.08;;;12.15;;
25980;SDS011;13772;52.996;9.124;2023-04-08T14:15:56;18.98;;;12.55;;
25980;SDS011;13772;52.996;9.124;2023-04-08T14:18:22;18.70;;;12.68;;
25980;SDS011;13772;52.996;9.124;2023-04-08T14:20:48;19.92;;;13.02;;
25980;SDS011;13772;52.996;9.124;2023-04-08T14:23:13;22.85;;;13.60;;
25980;SDS011;13772;52.996;9.124;2023-04-08T14:25:38;18.52;;;12.30;;
25980;SDS011;13772;52.996;9.124;2023-04-08T14:28:03;22.92;;;13.52;;
25980;SDS011;13772;52.996;9.124;2023-04-08T14:30:29;21.23;;;13.13;;
25980;SDS011;13772;52.996;9.124;2023-04-08T14:32:54;19.92;;;13.70;;
25980;SDS011;13772;52.996;9.124;2023-04-08T14:35:19;22.08;;;12.57;;
25980;SDS011;13772;52.996;9.124;2023-04-08T14:37:45;21.10;;;11.85;;
25980;SDS011;13772;52.996;9.124;2023-04-08T14:40:11;20.67;;;12.10;;
25980;SDS011;13772;52.996;9.124;2023-04-08T14:42:36;20.67;;;12.25;;
25980;SDS011;13772;52.996;9.124;2023-04-08T14:45:01;23.33;;;13.30;;
25980;SDS011;13772;52.996;9.124;2023-04-08T14:47:27;25.00;;;13.48;;
25980;SDS011;13772;52.996;9.124;2023-04-08T14:49:52;26.15;;;13.88;;
25980;SDS011;13772;52.996;9.124;2023-04-08T14:52:17;25.17;;;12.70;;
25980;SDS011;13772;52.996;9.124;2023-04-08T14:54:42;22.00;;;12.63;;
25980;SDS011;13772;52.996;9.124;2023-04-08T14:57:09;21.05;;;13.20;;
25980;SDS011;13772;52.996;9.124;2023-04-08T14:59:34;21.88;;;13.25;;
25980;SDS011;13772;52.996;9.124;2023-04-08T15:01:59;21.15;;;12.65;;
25980;SDS011;13772;52.996;9.124;2023-04-08T15:04:25;22.30;;;13.27;;
25980;SDS011;13772;52.996;9.124;2023-04-08T15:06:50;21.38;;;13.70;;
25980;SDS011;13772;52.996;9.124;2023-04-08T15:09:15;21.35;;;12.73;;
25980;SDS011;13772;52.996;9.124;2023-04-08T15:11:41;21.92;;;12.45;;
25980;SDS011;13772;52.996;9.124;2023-04-08T15:14:06;23.67;;;14.80;;
25980;SDS011;13772;52.996;9.124;2023-04-08T15:16:31;22.08;;;13.05;;
25980;SDS011;13772;52.996;9.124;2023-04-08T15:18:56;19.65;;;12.82;;
25980;SDS011;13772;52.996;9.124;2023-04-08T15:21:24;21.20;;;12.98;;
25980;SDS011;13772;52.996;9.124;2023-04-08T15:23:50;20.23;;;13.05;;
25980;SDS011;13772;52.996;9.124;2023-04-08T15:26:15;23.90;;;13.05;;
25980;SDS011;13772;52.996;9.124;2023-04-08T15:28:41;24.60;;;13.85;;
25980;SDS011;13772;52.996;9.124;2023-04-08T15:31:06;21.40;;;13.15;;
25980;SDS011;13772;52.996;9.124;2023-04-08T15:33:31;21.08;;;13.20;;
25980;SDS011;13772;52.996;9.124;2023-04-08T15:35:58;22.90;;;14.10;;
25980;SDS011;13772;52.996;9.124;2023-04-08T15:38:23;26.20;;;14.32;;
25980;SDS011;13772;52.996;9.124;2023-04-08T15:40:49;19.70;;;13.82;;
25980;SDS011;13772;52.996;9.124;2023-04-08T15:43:15;26.13;;;14.27;;
25980;SDS011;13772;52.996;9.124;2023-04-08T15:45:43;20.95;;;13.40;;
25980;SDS011;13772;52.996;9.124;2023-04-08T15:48:08;25.25;;;15.32;;
25980;SDS011;13772;52.996;9.124;2023-04-08T15:50:36;22.00;;;13.30;;
25980;SDS011;13772;52.996;9.124;2023-04-08T15:53:01;21.98;;;13.95;;
25980;SDS011;13772;52.996;9.124;2023-04-08T15:55:26;22.08;;;13.63;;
25980;SDS011;13772;52.996;9.124;2023-04-08T15:57:51;21.73;;;13.77;;
25980;SDS011;13772;52.996;9.124;2023-04-08T16:00:20;21.42;;;12.93;;
25980;SDS011;13772;52.996;9.124;2023-04-08T16:02:46;23.75;;;14.35;;
25980;SDS011;13772;52.996;9.124;2023-04-08T16:05:11;23.38;;;14.20;;
25980;SDS011;13772;52.996;9.124;2023-04-08T16:07:37;23.60;;;15.13;;
25980;SDS011;13772;52.996;9.124;2023-04-08T16:10:02;22.90;;;14.55;;
25980;SDS011;13772;52.996;9.124;2023-04-08T16:12:28;20.88;;;14.60;;
25980;SDS011;13772;52.996;9.124;2023-04-08T16:14:53;21.02;;;14.15;;
25980;SDS011;13772;52.996;9.124;2023-04-08T16:17:18;22.35;;;14.75;;
25980;SDS011;13772;52.996;9.124;2023-04-08T16:19:44;21.05;;;13.73;;
25980;SDS011;13772;52.996;9.124;2023-04-08T16:22:09;24.42;;;14.70;;
25980;SDS011;13772;52.996;9.124;2023-04-08T16:24:34;26.73;;;14.63;;
25980;SDS011;13772;52.996;9.124;2023-04-08T16:27:00;23.65;;;15.90;;
25980;SDS011;13772;52.996;9.124;2023-04-08T16:29:25;26.15;;;14.52;;
25980;SDS011;13772;52.996;9.124;2023-04-08T16:31:51;23.85;;;14.18;;
25980;SDS011;13772;52.996;9.124;2023-04-08T16:34:17;24.83;;;16.48;;
25980;SDS011;13772;52.996;9.124;2023-04-08T16:36:43;23.45;;;14.15;;
25980;SDS011;13772;52.996;9.124;2023-04-08T16:39:08;22.60;;;14.30;;
25980;SDS011;13772;52.996;9.124;2023-04-08T16:41:33;26.20;;;14.25;;
25980;SDS011;13772;52.996;9.124;2023-04-08T16:43:59;23.33;;;14.23;;
25980;SDS011;13772;52.996;9.124;2023-04-08T16:46:24;27.38;;;14.68;;
25980;SDS011;13772;52.996;9.124;2023-04-08T16:48:49;21.15;;;14.10;;
25980;SDS011;13772;52.996;9.124;2023-04-08T16:51:14;28.05;;;15.18;;
25980;SDS011;13772;52.996;9.124;2023-04-08T16:53:40;23.55;;;14.57;;
25980;SDS011;13772;52.996;9.124;2023-04-08T16:56:12;23.73;;;14.20;;
25980;SDS011;13772;52.996;9.124;2023-04-08T16:58:38;22.60;;;15.13;;
25980;SDS011;13772;52.996;9.124;2023-04-08T17:01:07;24.35;;;15.05;;
25980;SDS011;13772;52.996;9.124;2023-04-08T17:03:32;26.52;;;16.23;;
25980;SDS011;13772;52.996;9.124;2023-04-08T17:06:05;31.65;;;17.42;;
25980;SDS011;13772;52.996;9.124;2023-04-08T17:08:30;34.40;;;19.67;;
25980;SDS011;13772;52.996;9.124;2023-04-08T17:11:03;27.00;;;16.60;;
25980;SDS011;13772;52.996;9.124;2023-04-08T17:13:28;28.23;;;17.15;;
25980;SDS011;13772;52.996;9.124;2023-04-08T17:15:54;23.58;;;14.70;;
25980;SDS011;13772;52.996;9.124;2023-04-08T17:18:19;23.25;;;15.10;;
25980;SDS011;13772;52.996;9.124;2023-04-08T17:20:44;25.88;;;16.00;;
25980;SDS011;13772;52.996;9.124;2023-04-08T17:23:09;25.88;;;16.23;;
25980;SDS011;13772;52.996;9.124;2023-04-08T17:25:35;24.20;;;16.27;;
25980;SDS011;13772;52.996;9.124;2023-04-08T17:28:00;27.08;;;15.57;;
25980;SDS011;13772;52.996;9.124;2023-04-08T17:30:25;26.63;;;15.93;;
25980;SDS011;13772;52.996;9.124;2023-04-08T17:32:50;26.27;;;15.45;;
25980;SDS011;13772;52.996;9.124;2023-04-08T17:35:16;27.15;;;17.02;;
25980;SDS011;13772;52.996;9.124;2023-04-08T17:37:42;28.58;;;17.52;;
25980;SDS011;13772;52.996;9.124;2023-04-08T17:40:07;29.65;;;18.52;;
25980;SDS011;13772;52.996;9.124;2023-04-08T17:42:32;31.58;;;18.63;;
25980;SDS011;13772;52.996;9.124;2023-04-08T17:44:58;29.85;;;17.88;;
25980;SDS011;13772;52.996;9.124;2023-04-08T17:47:23;29.70;;;17.73;;
25980;SDS011;13772;52.996;9.124;2023-04-08T17:49:48;37.05;;;18.20;;
25980;SDS011;13772;52.996;9.124;2023-04-08T17:52:14;31.90;;;19.35;;
25980;SDS011;13772;52.996;9.124;2023-04-08T17:54:39;29.45;;;19.17;;
25980;SDS011;13772;52.996;9.124;2023-04-08T17:57:05;27.90;;;17.00;;
25980;SDS011;13772;52.996;9.124;2023-04-08T17:59:30;28.48;;;17.40;;
25980;SDS011;13772;52.996;9.124;2023-04-08T18:01:55;31.45;;;18.25;;
25980;SDS011;13772;52.996;9.124;2023-04-08T18:04:21;27.55;;;17.38;;
25980;SDS011;13772;52.996;9.124;2023-04-08T18:06:46;32.70;;;20.13;;
25980;SDS011;13772;52.996;9.124;2023-04-08T18:09:11;32.75;;;18.83;;
25980;SDS011;13772;52.996;9.124;2023-04-08T18:11:37;33.65;;;19.02;;
25980;SDS011;13772;52.996;9.124;2023-04-08T18:14:02;38.75;;;20.70;;
25980;SDS011;13772;52.996;9.124;2023-04-08T18:16:27;38.90;;;22.08;;
25980;SDS011;13772;52.996;9.124;2023-04-08T18:18:52;29.85;;;17.70;;
25980;SDS011;13772;52.996;9.124;2023-04-08T18:21:18;34.15;;;18.92;;
25980;SDS011;13772;52.996;9.124;2023-04-08T18:23:43;31.88;;;20.55;;
25980;SDS011;13772;52.996;9.124;2023-04-08T18:26:11;37.38;;;21.65;;
25980;SDS011;13772;52.996;9.124;2023-04-08T18:28:36;36.63;;;21.08;;
25980;SDS011;13772;52.996;9.124;2023-04-08T18:31:01;35.67;;;20.80;;
25980;SDS011;13772;52.996;9.124;2023-04-08T18:33:26;38.58;;;21.20;;
25980;SDS011;13772;52.996;9.124;2023-04-08T18:35:52;33.90;;;19.15;;
25980;SDS011;13772;52.996;9.124;2023-04-08T18:38:17;34.70;;;20.45;;
25980;SDS011;13772;52.996;9.124;2023-04-08T18:40:42;37.72;;;20.55;;
25980;SDS011;13772;52.996;9.124;2023-04-08T18:43:09;37.00;;;21.70;;
25980;SDS011;13772;52.996;9.124;2023-04-08T18:45:35;37.53;;;21.50;;
25980;SDS011;13772;52.996;9.124;2023-04-08T18:48:01;38.65;;;22.80;;
25980;SDS011;13772;52.996;9.124;2023-04-08T18:50:26;34.30;;;21.65;;
25980;SDS011;13772;52.996;9.124;2023-04-08T18:52:51;33.65;;;21.77;;
25980;SDS011;13772;52.996;9.124;2023-04-08T18:55:16;39.55;;;22.58;;
25980;SDS011;13772;52.996;9.124;2023-04-08T18:57:42;42.42;;;21.23;;
25980;SDS011;13772;52.996;9.124;2023-04-08T19:00:07;44.60;;;27.70;;
25980;SDS011;13772;52.996;9.124;2023-04-08T19:02:33;39.05;;;24.10;;
25980;SDS011;13772;52.996;9.124;2023-04-08T19:04:58;43.25;;;24.88;;
25980;SDS011;13772;52.996;9.124;2023-04-08T19:07:23;47.53;;;26.10;;
25980;SDS011;13772;52.996;9.124;2023-04-08T19:09:48;48.42;;;26.77;;
25980;SDS011;13772;52.996;9.124;2023-04-08T19:12:13;49.05;;;27.45;;
25980;SDS011;13772;52.996;9.124;2023-04-08T19:14:39;50.88;;;28.50;;
25980;SDS011;13772;52.996;9.124;2023-04-08T19:17:05;54.75;;;30.85;;
25980;SDS011;13772;52.996;9.124;2023-04-08T19:19:33;55.50;;;31.05;;
25980;SDS011;13772;52.996;9.124;2023-04-08T19:21:58;51.65;;;30.40;;
25980;SDS011;13772;52.996;9.124;2023-04-08T19:24:26;54.67;;;30.73;;
25980;SDS011;13772;52.996;9.124;2023-04-08T19:26:52;56.08;;;31.55;;
25980;SDS011;13772;52.996;9.124;2023-04-08T19:29:17;56.03;;;32.53;;
25980;SDS011;13772;52.996;9.124;2023-04-08T19:31:43;55.22;;;30.80;;
25980;SDS011;13772;52.996;9.124;2023-04-08T19:34:09;60.15;;;33.40;;
25980;SDS011;13772;52.996;9.124;2023-04-08T19:36:34;55.90;;;31.65;;
25980;SDS011;13772;52.996;9.124;2023-04-08T19:38:59;55.95;;;30.77;;
25980;SDS011;13772;52.996;9.124;2023-04-08T19:41:25;50.63;;;31.13;;
25980;SDS011;13772;52.996;9.124;2023-04-08T19:43:50;55.33;;;29.85;;
25980;SDS011;13772;52.996;9.124;2023-04-08T19:46:16;54.05;;;31.17;;
25980;SDS011;13772;52.996;9.124;2023-04-08T19:48:41;57.65;;;32.72;;
25980;SDS011;13772;52.996;9.124;2023-04-08T19:51:06;56.97;;;31.67;;
25980;SDS011;13772;52.996;9.124;2023-04-08T19:53:31;58.45;;;32.05;;
25980;SDS011;13772;52.996;9.124;2023-04-08T19:55:57;54.25;;;31.15;;
25980;SDS011;13772;52.996;9.124;2023-04-08T19:58:22;57.03;;;32.58;;
25980;SDS011;13772;52.996;9.124;2023-04-08T20:00:48;56.20;;;31.73;;
25980;SDS011;13772;52.996;9.124;2023-04-08T20:03:13;56.35;;;31.23;;
25980;SDS011;13772;52.996;9.124;2023-04-08T20:05:38;55.30;;;31.55;;
25980;SDS011;13772;52.996;9.124;2023-04-08T20:08:03;58.22;;;32.05;;
25980;SDS011;13772;52.996;9.124;2023-04-08T20:10:28;59.35;;;33.03;;
25980;SDS011;13772;52.996;9.124;2023-04-08T20:12:54;58.78;;;30.70;;
25980;SDS011;13772;52.996;9.124;2023-04-08T20:15:19;61.38;;;30.17;;
25980;SDS011;13772;52.996;9.124;2023-04-08T20:17:44;62.28;;;33.05;;
25980;SDS011;13772;52.996;9.124;2023-04-08T20:20:10;60.30;;;32.65;;
25980;SDS011;13772;52.996;9.124;2023-04-08T20:22:35;59.88;;;31.88;;
25980;SDS011;13772;52.996;9.124;2023-04-08T20:25:01;52.35;;;29.58;;
25980;SDS011;13772;52.996;9.124;2023-04-08T20:27:26;56.80;;;31.08;;
25980;SDS011;13772;52.996;9.124;2023-04-08T20:29:51;53.97;;;32.45;;
25980;SDS011;13772;52.996;9.124;2023-04-08T20:32:17;53.03;;;31.85;;
25980;SDS011;13772;52.996;9.124;2023-04-08T20:34:42;55.17;;;31.50;;
25980;SDS011;13772;52.996;9.124;2023-04-08T20:37:08;52.90;;;29.60;;
25980;SDS011;13772;52.996;9.124;2023-04-08T20:39:33;55.70;;;30.73;;
25980;SDS011;13772;52.996;9.124;2023-04-08T20:41:58;57.92;;;32.80;;
25980;SDS011;13772;52.996;9.124;2023-04-08T20:44:24;55.75;;;31.88;;
25980;SDS011;13772;52.996;9.124;2023-04-08T20:46:49;50.05;;;30.50;;
25980;SDS011;13772;52.996;9.124;2023-04-08T20:49:14;55.83;;;30.75;;
25980;SDS011;13772;52.996;9.124;2023-04-08T20:51:40;51.88;;;30.55;;
25980;SDS011;13772;52.996;9.124;2023-04-08T20:54:05;55.75;;;31.13;;
25980;SDS011;13772;52.996;9.124;2023-04-08T20:56:30;61.72;;;31.88;;
25980;SDS011;13772;52.996;9.124;2023-04-08T20:58:56;59.78;;;32.05;;
25980;SDS011;13772;52.996;9.124;2023-04-08T21:01:21;59.00;;;32.45;;
25980;SDS011;13772;52.996;9.124;2023-04-08T21:03:47;62.08;;;35.10;;
25980;SDS011;13772;52.996;9.124;2023-04-08T21:06:16;68.45;;;38.50;;
25980;SDS011;13772;52.996;9.124;2023-04-08T21:08:42;63.55;;;35.90;;
25980;SDS011;13772;52.996;9.124;2023-04-08T21:11:07;62.60;;;34.42;;
25980;SDS011;13772;52.996;9.124;2023-04-08T21:13:32;67.55;;;34.60;;
25980;SDS011;13772;52.996;9.124;2023-04-08T21:15:57;66.25;;;34.05;;
25980;SDS011;13772;52.996;9.124;2023-04-08T21:18:22;64.47;;;34.97;;
25980;SDS011;13772;52.996;9.124;2023-04-08T21:20:48;65.68;;;36.35;;
25980;SDS011;13772;52.996;9.124;2023-04-08T21:23:14;63.70;;;34.10;;
25980;SDS011;13772;52.996;9.124;2023-04-08T21:25:39;61.10;;;33.47;;
25980;SDS011;13772;52.996;9.124;2023-04-08T21:28:04;60.30;;;32.97;;
25980;SDS011;13772;52.996;9.124;2023-04-08T21:30:29;61.38;;;33.47;;
25980;SDS011;13772;52.996;9.124;2023-04-08T21:32:55;58.58;;;34.50;;
25980;SDS011;13772;52.996;9.124;2023-04-08T21:35:20;62.45;;;33.30;;
25980;SDS011;13772;52.996;9.124;2023-04-08T21:37:45;60.33;;;33.00;;
25980;SDS011;13772;52.996;9.124;2023-04-08T21:40:10;59.22;;;33.47;;
25980;SDS011;13772;52.996;9.124;2023-04-08T21:42:37;58.88;;;33.95;;
25980;SDS011;13772;52.996;9.124;2023-04-08T21:45:02;66.93;;;34.08;;
25980;SDS011;13772;52.996;9.124;2023-04-08T21:47:28;63.55;;;32.72;;
25980;SDS011;13772;52.996;9.124;2023-04-08T21:49:53;57.05;;;32.58;;
25980;SDS011;13772;52.996;9.124;2023-04-08T21:52:19;61.85;;;33.40;;
